createdAt,value
2023-05-10T00:00:32.201Z,64.74
2023-05-10T00:02:58.755Z,65.02
2023-05-10T00:05:25.386Z,64.22
2023-05-10T00:07:51.852Z,63.82
2023-05-10T00:10:18.456Z,64.08
2023-05-10T00:12:45.128Z,64.00
2023-05-10T00:15:11.694Z,64.24
2023-05-10T00:17:38.231Z,65.15
2023-05-10T00:20:06.051Z,65.42
2023-05-10T00:22:32.869Z,65.20
2023-05-10T00:24:59.666Z,64.66
2023-05-10T00:27:26.209Z,64.70
2023-05-10T00:29:52.695Z,64.64
2023-05-10T00:32:19.305Z,64.74
2023-05-10T00:34:45.896Z,64.56
2023-05-10T00:37:12.382Z,64.70
2023-05-10T00:39:38.850Z,64.83
2023-05-10T00:42:05.565Z,65.51
2023-05-10T00:44:32.582Z,65.72
2023-05-10T00:46:59.266Z,65.70
2023-05-10T00:49:26.275Z,65.87
2023-05-10T00:51:52.922Z,65.44
2023-05-10T00:54:20.422Z,65.42
2023-05-10T00:56:49.852Z,65.65
2023-05-10T00:59:20.338Z,65.55
2023-05-10T01:01:47.262Z,65.58
2023-05-10T01:04:14.149Z,66.61
2023-05-10T01:06:41.399Z,67.74
2023-05-10T01:09:07.986Z,68.30
2023-05-10T01:11:38.144Z,66.99
2023-05-10T01:14:04.654Z,66.80
2023-05-10T01:16:33.823Z,66.29
2023-05-10T01:19:00.429Z,66.47
2023-05-10T01:21:28.353Z,66.09
2023-05-10T01:24:20.044Z,66.63
2023-05-10T01:27:10.789Z,66.22
2023-05-10T01:30:15.619Z,66.87
2023-05-10T01:32:45.827Z,67.37
2023-05-10T01:35:23.894Z,67.12
2023-05-10T01:38:16.145Z,67.02
2023-05-10T01:41:01.053Z,67.01
2023-05-10T01:43:29.442Z,66.98
2023-05-10T01:46:11.753Z,66.98
2023-05-10T01:48:47.248Z,66.72
2023-05-10T01:51:16.048Z,67.37
2023-05-10T01:53:42.546Z,68.51
2023-05-10T01:56:09.456Z,68.77
2023-05-10T01:58:36.333Z,68.37
2023-05-10T02:01:04.489Z,67.96
2023-05-10T02:03:30.991Z,68.18
2023-05-10T02:05:57.545Z,67.46
2023-05-10T02:08:24.119Z,67.68
2023-05-10T02:10:52.633Z,67.71
2023-05-10T02:13:19.200Z,68.30
2023-05-10T02:15:48.360Z,68.72
2023-05-10T02:18:14.915Z,68.84
2023-05-10T02:20:41.482Z,68.71
2023-05-10T02:23:08.062Z,68.46
2023-05-10T02:25:35.671Z,69.96
2023-05-10T02:28:03.507Z,69.99
2023-05-10T02:30:30.105Z,69.33
2023-05-10T02:32:56.740Z,69.20
2023-05-10T02:35:24.138Z,69.68
2023-05-10T02:37:50.797Z,69.15
2023-05-10T02:40:18.085Z,71.08
2023-05-10T02:42:45.064Z,70.07
2023-05-10T02:45:13.353Z,70.05
2023-05-10T02:47:39.899Z,69.37
2023-05-10T02:50:06.807Z,69.33
2023-05-10T02:52:40.108Z,69.94
2023-05-10T02:55:07.177Z,70.84
2023-05-10T02:57:34.928Z,70.80
2023-05-10T03:00:02.577Z,70.61
2023-05-10T03:02:31.484Z,69.69
2023-05-10T03:04:58.102Z,70.00
2023-05-10T03:07:24.939Z,69.98
2023-05-10T03:09:51.615Z,70.48
2023-05-10T03:12:37.056Z,70.27
2023-05-10T03:15:20.379Z,69.97
2023-05-10T03:18:08.445Z,69.66
2023-05-10T03:20:47.309Z,70.97
2023-05-10T03:23:29.663Z,70.95
2023-05-10T03:25:56.181Z,70.80
2023-05-10T03:28:22.984Z,70.91
2023-05-10T03:30:49.539Z,70.79
2023-05-10T03:33:16.192Z,71.29
2023-05-10T03:35:46.714Z,71.18
2023-05-10T03:38:13.613Z,71.09
2023-05-10T03:40:40.454Z,70.99
2023-05-10T03:43:07.572Z,70.27
2023-05-10T03:45:34.202Z,70.75
2023-05-10T03:48:00.852Z,71.35
2023-05-10T03:50:27.708Z,71.39
2023-05-10T03:52:54.844Z,71.24
2023-05-10T03:55:21.721Z,71.50
2023-05-10T03:57:50.645Z,71.13
2023-05-10T04:00:17.789Z,71.25
2023-05-10T04:02:46.785Z,71.32
2023-05-10T04:05:18.781Z,70.55
2023-05-10T04:07:45.459Z,70.52
2023-05-10T04:10:12.450Z,70.59
2023-05-10T04:12:39.186Z,70.84
2023-05-10T04:15:07.565Z,70.68
2023-05-10T04:17:34.282Z,70.39
2023-05-10T04:20:00.873Z,70.35
2023-05-10T04:22:28.701Z,69.68
2023-05-10T04:24:55.318Z,69.79
2023-05-10T04:27:21.905Z,69.50
2023-05-10T04:29:48.480Z,69.83
2023-05-10T04:32:17.155Z,70.34
2023-05-10T04:34:44.302Z,70.49
2023-05-10T04:37:11.643Z,70.14
2023-05-10T04:39:40.186Z,70.24
2023-05-10T04:42:08.191Z,69.99
2023-05-10T04:44:34.851Z,69.76
2023-05-10T04:47:03.285Z,69.73
2023-05-10T04:49:30.630Z,69.53
2023-05-10T04:51:57.193Z,69.64
2023-05-10T04:54:23.708Z,69.63
2023-05-10T04:56:52.582Z,70.19
2023-05-10T04:59:22.006Z,70.64
2023-05-10T05:01:51.046Z,69.99
2023-05-10T05:04:20.921Z,69.86
2023-05-10T05:06:51.638Z,69.61
2023-05-10T05:09:22.614Z,69.92
2023-05-10T05:11:51.162Z,70.40
2023-05-10T05:14:22.094Z,70.16
2023-05-10T05:16:51.912Z,70.27
2023-05-10T05:19:20.573Z,70.47
2023-05-10T05:21:49.646Z,70.43
2023-05-10T05:24:18.992Z,69.72
2023-05-10T05:26:49.063Z,69.76
2023-05-10T05:29:18.939Z,69.58
2023-05-10T05:31:47.530Z,69.46
2023-05-10T05:34:17.004Z,69.50
2023-05-10T05:36:45.032Z,69.98
2023-05-10T05:39:14.051Z,69.97
2023-05-10T05:41:43.976Z,69.86
2023-05-10T05:44:14.128Z,69.29
2023-05-10T05:46:44.491Z,69.11
2023-05-10T05:49:13.398Z,68.79
2023-05-10T05:51:43.047Z,68.61
2023-05-10T05:54:12.295Z,68.87
2023-05-10T06:03:53.595Z,69.16
2023-05-10T06:06:20.359Z,69.26
2023-05-10T06:08:46.994Z,69.17
2023-05-10T06:11:13.555Z,68.61
2023-05-10T06:13:40.211Z,68.31
2023-05-10T06:16:07.143Z,68.21
2023-05-10T06:18:33.863Z,68.06
2023-05-10T06:21:00.986Z,67.97
2023-05-10T06:23:27.461Z,67.61
2023-05-10T06:25:53.996Z,67.60
2023-05-10T06:28:20.475Z,68.36
2023-05-10T06:30:47.064Z,68.95
2023-05-10T06:33:13.834Z,68.75
2023-05-10T06:35:40.395Z,68.42
2023-05-10T06:38:07.093Z,68.40
2023-05-10T06:40:33.891Z,68.37
2023-05-10T06:43:00.611Z,68.16
2023-05-10T06:45:27.410Z,68.02
2023-05-10T06:47:54.340Z,68.10
2023-05-10T06:50:20.998Z,68.26
2023-05-10T06:52:47.525Z,69.07
2023-05-10T06:55:14.072Z,69.60
2023-05-10T06:57:40.901Z,69.69
2023-05-10T07:00:08.895Z,69.42
2023-05-10T07:02:35.772Z,68.90
2023-05-10T07:05:06.105Z,68.81
2023-05-10T07:07:32.789Z,68.67
2023-05-10T07:09:59.437Z,68.58
2023-05-10T07:12:26.311Z,68.49
2023-05-10T07:14:53.405Z,68.61
2023-05-10T07:17:19.983Z,68.59
2023-05-10T07:19:46.612Z,69.45
2023-05-10T07:22:13.319Z,69.76
2023-05-10T07:24:39.968Z,69.88
2023-05-10T07:27:06.708Z,69.89
2023-05-10T07:29:33.643Z,69.68
2023-05-10T07:32:00.242Z,69.27
2023-05-10T07:34:26.836Z,68.47
2023-05-10T07:36:53.650Z,68.38
2023-05-10T07:39:27.739Z,68.42
2023-05-10T07:41:58.021Z,69.13
2023-05-10T07:44:24.723Z,69.30
2023-05-10T07:46:51.287Z,69.69
2023-05-10T07:49:18.064Z,69.36
2023-05-10T07:51:44.701Z,69.12
2023-05-10T07:54:11.317Z,69.30
2023-05-10T07:56:37.792Z,69.31
2023-05-10T07:59:09.291Z,68.45
2023-05-10T08:01:36.471Z,67.52
2023-05-10T08:04:03.342Z,68.16
2023-05-10T08:06:31.149Z,68.01
2023-05-10T08:08:58.345Z,67.79
2023-05-10T08:11:24.990Z,67.35
2023-05-10T08:13:51.701Z,67.43
2023-05-10T08:16:18.358Z,68.19
2023-05-10T08:18:46.301Z,68.24
2023-05-10T08:21:13.541Z,68.08
2023-05-10T08:23:40.251Z,68.36
2023-05-10T08:26:07.256Z,68.20
2023-05-10T08:28:33.835Z,67.80
2023-05-10T08:31:00.433Z,67.42
2023-05-10T08:33:27.137Z,66.91
2023-05-10T08:35:53.837Z,67.28
2023-05-10T08:38:20.427Z,67.11
2023-05-10T08:40:47.146Z,66.86
2023-05-10T08:43:16.017Z,66.97
2023-05-10T08:45:44.132Z,67.22
2023-05-10T08:48:11.306Z,66.87
2023-05-10T08:50:38.963Z,66.70
2023-05-10T08:53:10.997Z,66.04
2023-05-10T08:55:39.435Z,65.18
2023-05-10T08:58:06.656Z,65.45
2023-05-10T09:00:33.539Z,64.92
2023-05-10T09:03:00.441Z,64.20
2023-05-10T09:05:27.477Z,62.73
2023-05-10T09:07:54.422Z,65.44
2023-05-10T09:10:21.431Z,66.21
2023-05-10T09:12:48.937Z,65.79
2023-05-10T09:15:16.899Z,66.03
2023-05-10T09:17:44.042Z,66.89
2023-05-10T09:20:10.899Z,66.99
2023-05-10T09:22:37.379Z,67.49
2023-05-10T09:25:12.008Z,67.56
2023-05-10T09:27:39.141Z,67.82
2023-05-10T09:30:07.545Z,68.01
2023-05-10T09:32:41.383Z,68.65
2023-05-10T09:35:15.642Z,69.09
2023-05-10T09:37:44.117Z,69.43
2023-05-10T09:40:15.454Z,69.94
2023-05-10T09:42:52.312Z,70.25
2023-05-10T09:45:19.180Z,69.76
2023-05-10T09:47:47.181Z,68.93
2023-05-10T09:50:14.039Z,69.46
2023-05-10T09:53:00.141Z,69.45
2023-05-10T09:55:38.734Z,70.38
2023-05-10T09:58:07.707Z,70.54
2023-05-10T10:00:36.421Z,70.64
2023-05-10T10:03:03.064Z,70.44
2023-05-10T10:05:36.332Z,70.29
2023-05-10T10:08:06.012Z,70.32
2023-05-10T10:10:33.334Z,70.20
2023-05-10T10:13:00.413Z,70.22
2023-05-10T10:15:27.142Z,70.42
2023-05-10T10:17:53.900Z,70.07
2023-05-10T10:20:21.535Z,69.58
2023-05-10T10:22:48.244Z,68.99
2023-05-10T10:25:16.248Z,68.86
2023-05-10T10:27:54.672Z,68.78
2023-05-10T10:30:38.544Z,68.49
2023-05-10T10:33:28.472Z,68.47
2023-05-10T10:35:55.597Z,68.38
2023-05-10T10:38:22.090Z,67.82
2023-05-10T10:40:48.938Z,68.44
2023-05-10T10:43:23.192Z,68.59
2023-05-10T10:46:11.037Z,68.19
2023-05-10T10:48:37.543Z,68.00
2023-05-10T10:51:04.118Z,67.65
2023-05-10T10:53:30.727Z,66.92
2023-05-10T10:56:07.713Z,66.53
2023-05-10T10:58:34.462Z,66.73
2023-05-10T11:01:17.974Z,66.28
2023-05-10T11:04:10.918Z,66.54
2023-05-10T11:06:37.413Z,66.34
2023-05-10T11:09:12.208Z,66.32
2023-05-10T11:11:56.269Z,64.59
2023-05-10T11:14:26.110Z,65.82
2023-05-10T11:16:52.751Z,66.29
2023-05-10T11:19:19.942Z,66.11
2023-05-10T11:21:51.282Z,65.84
2023-05-10T11:24:23.473Z,65.80
2023-05-10T11:26:53.229Z,65.31
2023-05-10T11:29:19.801Z,64.81
2023-05-10T11:31:47.569Z,64.56
2023-05-10T11:34:26.822Z,64.34
2023-05-10T11:36:54.867Z,64.23
2023-05-10T11:39:22.518Z,64.28
2023-05-10T11:41:49.904Z,64.10
2023-05-10T11:44:16.371Z,64.74
2023-05-10T11:46:42.918Z,64.70
2023-05-10T11:49:09.496Z,64.00
2023-05-10T11:51:37.181Z,64.29
2023-05-10T11:54:09.251Z,64.49
2023-05-10T11:56:35.804Z,64.50
2023-05-10T11:59:03.467Z,64.31
2023-05-10T12:01:29.992Z,64.47
2023-05-10T12:04:00.005Z,63.62
2023-05-10T12:06:32.218Z,64.32
2023-05-10T12:08:59.024Z,65.15
2023-05-10T12:11:26.453Z,65.92
2023-05-10T12:13:54.150Z,65.41
2023-05-10T12:16:22.346Z,65.04
2023-05-10T12:18:52.782Z,64.50
2023-05-10T12:21:19.861Z,64.57
2023-05-10T12:23:47.339Z,64.93
2023-05-10T12:26:13.971Z,64.97
2023-05-10T12:28:40.667Z,65.33
2023-05-10T12:31:07.477Z,65.36
2023-05-10T12:33:44.379Z,65.26
2023-05-10T12:36:11.616Z,65.59
2023-05-10T12:38:43.980Z,65.19
2023-05-10T12:41:11.867Z,65.49
2023-05-10T12:43:38.744Z,65.70
2023-05-10T12:46:06.797Z,65.70
2023-05-10T12:48:34.878Z,65.65
2023-05-10T12:51:02.402Z,65.44
2023-05-10T12:53:28.889Z,65.79
2023-05-10T12:55:55.474Z,65.98
2023-05-10T13:00:54.388Z,65.13
2023-05-10T13:03:20.983Z,65.72
2023-05-10T13:05:47.530Z,65.82
2023-05-10T13:08:14.040Z,66.20
2023-05-10T13:10:41.225Z,66.39
2023-05-10T13:13:08.580Z,66.31
2023-05-10T13:15:35.415Z,65.68
2023-05-10T13:18:02.035Z,65.59
2023-05-10T13:20:28.745Z,65.86
2023-05-10T13:22:55.437Z,65.58
2023-05-10T13:25:21.980Z,65.71
2023-05-10T13:27:48.434Z,65.49
2023-05-10T13:30:15.258Z,65.97
2023-05-10T13:32:41.919Z,65.67
2023-05-10T13:35:08.831Z,66.22
2023-05-10T13:37:38.180Z,66.61
2023-05-10T13:40:05.515Z,66.73
2023-05-10T13:42:34.503Z,66.52
2023-05-10T13:45:02.755Z,66.34
2023-05-10T13:47:29.364Z,66.07
2023-05-10T13:49:56.224Z,66.59
2023-05-10T13:52:22.692Z,66.02
2023-05-10T13:54:49.212Z,66.14
2023-05-10T13:57:17.646Z,66.31
2023-05-10T13:59:44.235Z,65.91
2023-05-10T14:02:13.156Z,66.60
2023-05-10T14:04:39.862Z,66.35
2023-05-10T14:07:06.606Z,66.96
2023-05-10T14:09:33.113Z,67.47
2023-05-10T14:11:59.765Z,67.45
2023-05-10T14:14:26.362Z,66.93
2023-05-10T14:16:53.058Z,66.65
2023-05-10T14:19:20.082Z,66.51
2023-05-10T14:21:46.720Z,66.34
2023-05-10T14:24:13.316Z,67.11
2023-05-10T14:26:39.869Z,66.80
2023-05-10T14:29:06.405Z,66.87
2023-05-10T14:31:32.960Z,67.15
2023-05-10T14:34:00.164Z,66.85
2023-05-10T14:36:26.855Z,66.71
2023-05-10T14:38:53.432Z,66.61
2023-05-10T14:41:20.048Z,66.53
2023-05-10T14:43:46.965Z,66.84
2023-05-10T14:46:13.560Z,66.89
2023-05-10T14:48:40.220Z,66.76
2023-05-10T14:51:07.467Z,67.21
2023-05-10T14:53:34.041Z,66.90
2023-05-10T14:56:02.240Z,67.36
2023-05-10T14:58:29.131Z,67.79
2023-05-10T15:00:55.743Z,67.82
2023-05-10T15:03:23.408Z,67.40
2023-05-10T15:05:50.622Z,67.29
2023-05-10T15:08:17.426Z,67.36
2023-05-10T15:10:44.033Z,67.14
2023-05-10T15:13:10.664Z,66.84
2023-05-10T15:15:37.347Z,67.26
2023-05-10T15:18:03.982Z,67.05
2023-05-10T15:20:30.541Z,66.83
2023-05-10T15:22:57.565Z,67.37
2023-05-10T15:25:24.668Z,66.95
2023-05-10T15:27:51.248Z,67.83
2023-05-10T15:30:18.581Z,67.93
2023-05-10T15:32:45.700Z,67.84
2023-05-10T15:35:12.345Z,67.78
2023-05-10T15:37:39.007Z,67.48
2023-05-10T15:40:06.540Z,67.59
2023-05-10T15:42:33.130Z,67.31
2023-05-10T15:44:59.727Z,67.27
2023-05-10T15:47:26.814Z,67.05
2023-05-10T15:49:53.634Z,67.55
2023-05-10T15:52:21.559Z,67.87
2023-05-10T15:54:48.745Z,67.69
2023-05-10T15:57:17.603Z,67.37
2023-05-10T15:59:46.122Z,67.24
2023-05-10T16:02:16.686Z,67.39
2023-05-10T16:04:46.724Z,67.12
2023-05-10T16:07:16.579Z,67.26
2023-05-10T16:09:45.802Z,67.20
2023-05-10T16:12:14.138Z,67.20
2023-05-10T16:14:43.161Z,67.32
2023-05-10T16:17:12.083Z,67.35
2023-05-10T16:19:41.686Z,67.87
2023-05-10T16:22:11.469Z,67.97
2023-05-10T16:24:40.424Z,67.74
2023-05-10T16:27:09.904Z,67.52
2023-05-10T16:29:38.797Z,67.37
2023-05-10T16:32:07.740Z,67.21
2023-05-10T16:34:37.690Z,67.34
2023-05-10T16:37:06.664Z,67.16
2023-05-10T16:39:37.216Z,67.21
2023-05-10T16:42:07.048Z,67.32
2023-05-10T16:44:37.734Z,67.18
2023-05-10T16:47:06.275Z,67.10
2023-05-10T16:49:34.683Z,67.69
2023-05-10T16:52:05.683Z,67.73
2023-05-10T16:54:34.852Z,67.98
2023-05-10T17:04:20.655Z,67.53
2023-05-10T17:06:47.268Z,67.43
2023-05-10T17:09:13.877Z,67.13
2023-05-10T17:11:40.404Z,67.14
2023-05-10T17:14:07.383Z,67.22
2023-05-10T17:16:34.049Z,67.50
2023-05-10T17:19:01.323Z,67.45
2023-05-10T17:21:27.898Z,67.22
2023-05-10T17:23:54.453Z,67.72
2023-05-10T17:26:22.078Z,68.32
2023-05-10T17:28:48.601Z,68.13
2023-05-10T17:31:15.228Z,68.00
2023-05-10T17:33:42.278Z,68.22
2023-05-10T17:36:09.390Z,68.13
2023-05-10T17:38:36.391Z,67.97
2023-05-10T17:41:03.069Z,67.89
2023-05-10T17:43:29.583Z,68.02
2023-05-10T17:45:56.160Z,68.10
2023-05-10T17:48:23.263Z,68.30
2023-05-10T17:50:50.970Z,68.62
2023-05-10T17:53:18.413Z,68.73
2023-05-10T17:59:06.580Z,68.86
2023-05-10T18:01:33.222Z,68.50
2023-05-10T18:04:00.074Z,68.38
2023-05-10T18:06:27.014Z,68.40
2023-05-10T18:08:53.660Z,68.90
2023-05-10T18:11:20.161Z,68.54
2023-05-10T18:13:46.680Z,68.54
2023-05-10T18:16:13.752Z,69.01
2023-05-10T18:18:40.497Z,69.37
2023-05-10T18:21:06.990Z,69.18
2023-05-10T18:23:34.061Z,69.18
2023-05-10T18:26:00.574Z,69.28
2023-05-10T18:28:27.136Z,68.61
2023-05-10T18:30:53.603Z,68.45
2023-05-10T18:33:20.337Z,68.74
2023-05-10T18:35:47.330Z,69.31
2023-05-10T18:38:13.926Z,70.29
2023-05-10T18:40:41.587Z,69.38
2023-05-10T18:43:09.048Z,69.68
2023-05-10T18:45:35.588Z,69.81
2023-05-10T18:48:02.789Z,70.27
2023-05-10T18:50:29.566Z,69.91
2023-05-10T18:52:56.769Z,69.70
2023-05-10T18:55:25.924Z,70.10
2023-05-10T18:57:52.691Z,69.79
2023-05-10T19:00:20.365Z,69.61
2023-05-10T19:02:47.409Z,69.44
2023-05-10T19:05:14.431Z,69.45
2023-05-10T19:07:43.872Z,69.92
2023-05-10T19:10:12.847Z,70.31
2023-05-10T19:12:41.357Z,69.93
2023-05-10T19:15:08.972Z,70.23
2023-05-10T19:17:36.658Z,70.46
2023-05-10T19:20:05.829Z,70.08
2023-05-10T19:22:47.149Z,69.78
2023-05-10T19:25:20.298Z,70.66
2023-05-10T19:27:46.872Z,70.43
2023-05-10T19:30:13.584Z,70.46
2023-05-10T19:32:40.484Z,70.77
2023-05-10T19:35:07.872Z,70.28
2023-05-10T19:37:34.719Z,70.46
2023-05-10T19:40:01.421Z,70.58
2023-05-10T19:42:28.267Z,70.32
2023-05-10T19:44:54.759Z,69.89
2023-05-10T19:47:21.680Z,69.90
2023-05-10T19:49:48.216Z,70.24
2023-05-10T19:52:15.580Z,70.61
2023-05-10T19:54:42.186Z,70.56
2023-05-10T19:57:08.671Z,70.76
2023-05-10T19:59:35.599Z,70.71
2023-05-10T20:02:02.420Z,70.32
2023-05-10T20:04:29.269Z,70.60
2023-05-10T20:06:55.886Z,70.14
2023-05-10T20:09:22.756Z,70.13
2023-05-10T20:11:49.275Z,70.27
2023-05-10T20:14:16.595Z,70.24
2023-05-10T20:16:43.086Z,70.29
2023-05-10T20:19:11.120Z,70.76
2023-05-10T20:21:37.701Z,70.50
2023-05-10T20:24:04.950Z,70.39
2023-05-10T20:26:31.543Z,70.41
2023-05-10T20:28:58.015Z,70.55
2023-05-10T20:31:24.594Z,70.79
2023-05-10T20:33:51.043Z,70.78
2023-05-10T20:36:17.571Z,70.55
2023-05-10T20:38:44.082Z,70.40
2023-05-10T20:41:10.548Z,70.58
2023-05-10T20:43:37.082Z,71.09
2023-05-10T20:46:05.429Z,71.06
2023-05-10T20:48:33.140Z,71.31
2023-05-10T20:51:00.936Z,71.04
2023-05-10T20:53:27.416Z,71.15
2023-05-10T20:55:53.941Z,71.09
2023-05-10T20:58:20.637Z,71.49
2023-05-10T21:00:47.101Z,71.48
2023-05-10T21:03:14.628Z,71.25
2023-05-10T21:05:41.208Z,71.45
2023-05-10T21:08:07.709Z,71.19
2023-05-10T21:10:34.351Z,71.05
2023-05-10T21:13:01.112Z,70.99
2023-05-10T21:15:27.909Z,71.17
2023-05-10T21:17:54.464Z,71.12
2023-05-10T21:20:21.391Z,72.29
2023-05-10T21:22:47.885Z,71.86
2023-05-10T21:25:14.465Z,71.87
2023-05-10T21:27:40.963Z,72.16
2023-05-10T21:30:09.368Z,72.02
2023-05-10T21:32:37.034Z,71.81
2023-05-10T21:35:04.553Z,71.94
2023-05-10T21:37:31.136Z,71.91
2023-05-10T21:39:57.640Z,71.80
2023-05-10T21:42:24.212Z,71.37
2023-05-10T21:44:50.733Z,71.86
2023-05-10T21:47:17.428Z,71.94
2023-05-10T21:49:44.522Z,71.74
2023-05-10T21:52:11.321Z,71.75
2023-05-10T21:54:37.817Z,71.59
2023-05-10T21:57:04.310Z,71.36
2023-05-10T21:59:30.815Z,71.51
2023-05-10T22:01:57.359Z,71.25
2023-05-10T22:04:23.983Z,71.06
2023-05-10T22:06:50.578Z,70.73
2023-05-10T22:09:18.845Z,71.23
2023-05-10T22:11:45.854Z,71.35
2023-05-10T22:14:12.328Z,71.90
2023-05-10T22:16:39.051Z,71.95
2023-05-10T22:19:05.808Z,71.41
2023-05-10T22:21:32.621Z,71.51
2023-05-10T22:23:59.296Z,71.65
2023-05-10T22:26:26.244Z,71.57
2023-05-10T22:28:52.819Z,71.45
2023-05-10T22:31:19.540Z,71.11
2023-05-10T22:33:46.108Z,70.93
2023-05-10T22:36:12.852Z,71.29
2023-05-10T22:38:39.412Z,71.25
2023-05-10T22:41:06.016Z,71.56
2023-05-10T22:43:33.506Z,71.48
2023-05-10T22:46:00.174Z,71.58
2023-05-10T22:48:28.451Z,71.63
2023-05-10T22:50:55.132Z,71.52
2023-05-10T22:53:21.626Z,71.37
2023-05-10T22:55:48.307Z,71.25
2023-05-10T22:58:14.755Z,71.19
2023-05-10T23:00:41.305Z,71.48
2023-05-10T23:03:07.879Z,72.01
2023-05-10T23:05:34.556Z,72.16
2023-05-10T23:08:01.599Z,71.88
2023-05-10T23:10:28.314Z,71.89
2023-05-10T23:12:56.153Z,71.93
2023-05-10T23:15:22.815Z,72.11
2023-05-10T23:17:49.355Z,72.14
2023-05-10T23:20:16.362Z,72.06
2023-05-10T23:22:43.103Z,72.28
2023-05-10T23:25:10.684Z,72.71
2023-05-10T23:27:37.381Z,72.53
2023-05-10T23:30:04.435Z,72.77
2023-05-10T23:32:31.306Z,72.53
2023-05-10T23:34:57.913Z,72.65
2023-05-10T23:37:24.539Z,72.77
2023-05-10T23:39:52.152Z,72.49
2023-05-10T23:42:18.746Z,72.53
2023-05-10T23:44:45.421Z,72.85
2023-05-10T23:47:12.015Z,72.76
2023-05-10T23:49:38.528Z,72.31
2023-05-10T23:52:05.028Z,71.81
2023-05-10T23:54:31.619Z,71.79
2023-05-10T23:56:58.082Z,72.03
2023-05-10T23:59:24.571Z,72.39
